Time;durP1;ratioP1;P1;durP2;ratioP2;P2;SDS_P1;SDS_P2;PMS_P1;PMS_P2;Temp;Humidity;BMP_temperature;BMP_pressure;BME280_temperature;BME280_humidity;BME280_pressure;Samples;Min_cycle;Max_cycle;Signal;HPM_P1;HPM_P2
2023/10/27 00:01:56;;;;;;;9.10;8.80;;;11.70;99.90;;;;;;4945734;28;20277;-82
2023/10/27 00:04:24;;;;;;;9.20;8.90;;;11.70;99.90;;;;;;4945898;29;20233;-82
2023/10/27 00:06:51;;;;;;;8.97;8.67;;;11.70;99.90;;;;;;4946315;28;20266;-82
2023/10/27 00:09:19;;;;;;;9.00;8.70;;;11.60;99.90;;;;;;4946603;29;20239;-83
2023/10/27 00:11:47;;;;;;;9.10;8.80;;;11.60;99.90;;;;;;4944930;29;20295;-83
2023/10/27 00:14:14;;;;;;;9.00;8.70;;;11.50;99.90;;;;;;4946601;29;20266;-82
2023/10/27 00:16:41;;;;;;;9.00;8.70;;;11.50;99.90;;;;;;4946586;29;20265;-82
2023/10/27 00:19:08;;;;;;;9.00;8.70;;;11.50;99.90;;;;;;4946043;29;20259;-82
2023/10/27 00:21:35;;;;;;;9.20;8.90;;;11.50;99.90;;;;;;4937922;28;20231;-83
2023/10/27 00:24:03;;;;;;;9.10;8.80;;;11.50;99.90;;;;;;4945253;29;20257;-83
2023/10/27 00:26:31;;;;;;;9.30;9.00;;;11.50;99.90;;;;;;4938345;29;20243;-83
2023/10/27 00:28:58;;;;;;;9.20;8.90;;;11.40;99.90;;;;;;4945918;28;20235;-82
2023/10/27 00:31:26;;;;;;;9.23;8.93;;;11.40;99.90;;;;;;4946180;29;20247;-82
2023/10/27 00:33:53;;;;;;;9.50;9.20;;;11.30;99.90;;;;;;4945210;29;20294;-82
2023/10/27 00:36:20;;;;;;;9.13;8.83;;;11.30;99.90;;;;;;4945272;29;20243;-82
2023/10/27 00:38:48;;;;;;;9.20;8.90;;;11.40;99.90;;;;;;4946642;29;20238;-83
2023/10/27 00:41:15;;;;;;;9.40;9.10;;;11.30;99.90;;;;;;4947093;29;20243;-82
2023/10/27 00:43:43;;;;;;;9.30;9.00;;;11.30;99.90;;;;;;4953409;29;20247;-82
2023/10/27 00:46:11;;;;;;;9.40;9.10;;;11.30;99.90;;;;;;4953889;29;20238;-82
2023/10/27 00:48:38;;;;;;;9.43;9.13;;;11.30;99.90;;;;;;4953227;29;20262;-82
2023/10/27 00:51:06;;;;;;;9.37;9.07;;;11.30;99.90;;;;;;4952038;29;20234;-82
2023/10/27 00:53:34;;;;;;;9.30;9.00;;;11.30;99.90;;;;;;4947738;29;20821;-82
2023/10/27 00:56:03;;;;;;;9.23;8.93;;;11.20;99.90;;;;;;4947060;29;20238;-82
2023/10/27 00:58:30;;;;;;;9.20;8.90;;;11.20;99.90;;;;;;4946462;29;20305;-82
2023/10/27 01:01:01;;;;;;;9.13;8.83;;;11.20;99.90;;;;;;4946754;29;20247;-83
2023/10/27 01:03:29;;;;;;;9.30;9.00;;;11.20;99.90;;;;;;4944973;29;20277;-82
2023/10/27 01:05:56;;;;;;;9.30;9.00;;;11.20;99.90;;;;;;4944518;29;20235;-82
2023/10/27 01:08:23;;;;;;;9.40;9.10;;;11.10;99.90;;;;;;4944653;29;20250;-84
2023/10/27 01:10:50;;;;;;;9.10;8.80;;;11.10;99.90;;;;;;4944619;29;20238;-83
2023/10/27 01:13:18;;;;;;;9.30;9.00;;;11.10;99.90;;;;;;4944369;29;20239;-82
2023/10/27 01:15:45;;;;;;;9.20;8.90;;;11.10;99.90;;;;;;4947472;29;20228;-82
2023/10/27 01:18:13;;;;;;;9.17;8.87;;;11.10;99.90;;;;;;4948083;29;20230;-82
2023/10/27 01:20:40;;;;;;;9.37;9.07;;;11.00;99.90;;;;;;4948228;29;20227;-83
2023/10/27 01:23:09;;;;;;;9.27;8.97;;;11.00;99.90;;;;;;4946646;29;20325;-83
2023/10/27 01:25:36;;;;;;;9.40;9.10;;;11.00;99.90;;;;;;4945789;29;20231;-82
2023/10/27 01:28:06;;;;;;;9.30;9.00;;;11.00;99.90;;;;;;4946480;28;20294;-83
2023/10/27 01:30:33;;;;;;;9.40;9.10;;;10.90;99.90;;;;;;4947246;28;20302;-83
2023/10/27 01:33:00;;;;;;;9.10;8.80;;;11.00;99.90;;;;;;4949883;29;20226;-83
2023/10/27 01:35:28;;;;;;;9.60;9.30;;;11.00;99.90;;;;;;4950643;29;20238;-83
2023/10/27 01:37:55;;;;;;;9.30;9.00;;;11.00;99.90;;;;;;4950448;28;20223;-83
2023/10/27 01:40:24;;;;;;;9.33;9.03;;;11.00;99.90;;;;;;4948381;29;20250;-84
2023/10/27 01:42:51;;;;;;;9.20;8.90;;;11.00;99.90;;;;;;4946511;29;20251;-83
2023/10/27 01:45:18;;;;;;;9.10;8.80;;;11.00;99.90;;;;;;4945216;28;20247;-83
2023/10/27 01:47:45;;;;;;;9.33;9.03;;;11.00;99.90;;;;;;4945261;28;20263;-83
2023/10/27 01:50:12;;;;;;;9.20;8.90;;;11.00;99.90;;;;;;4944243;29;20302;-82
2023/10/27 01:52:41;;;;;;;9.23;8.93;;;11.00;99.90;;;;;;4950708;29;20234;-83
2023/10/27 01:55:09;;;;;;;9.57;9.27;;;11.00;99.90;;;;;;4950273;28;20253;-82
2023/10/27 01:57:38;;;;;;;9.10;8.80;;;11.00;99.90;;;;;;4948910;28;20335;-83
2023/10/27 02:00:07;;;;;;;9.10;8.80;;;11.00;99.90;;;;;;4946285;28;20235;-82
2023/10/27 02:02:35;;;;;;;9.20;8.90;;;11.00;99.90;;;;;;4955022;29;20242;-82
2023/10/27 02:05:03;;;;;;;9.43;9.13;;;11.00;99.90;;;;;;4949758;29;20239;-82
2023/10/27 02:07:31;;;;;;;9.30;9.00;;;11.00;99.90;;;;;;4946413;29;20330;-83
2023/10/27 02:09:59;;;;;;;9.33;9.03;;;11.00;99.90;;;;;;4935019;29;20235;-83
2023/10/27 02:12:26;;;;;;;9.20;8.90;;;10.90;99.90;;;;;;4947863;28;20223;-83
2023/10/27 02:14:55;;;;;;;9.17;8.87;;;10.90;99.90;;;;;;4947950;29;20239;-83
2023/10/27 02:17:22;;;;;;;9.37;9.07;;;10.90;99.90;;;;;;4947700;28;20231;-83
2023/10/27 02:19:50;;;;;;;9.27;8.97;;;10.90;99.90;;;;;;4945811;29;20310;-83
2023/10/27 02:22:18;;;;;;;9.50;9.20;;;10.90;99.90;;;;;;4945113;29;20243;-83
2023/10/27 02:24:45;;;;;;;9.40;9.10;;;10.90;99.90;;;;;;4948253;29;20262;-83
2023/10/27 02:27:12;;;;;;;9.40;9.10;;;10.90;99.90;;;;;;4947978;29;20254;-83
2023/10/27 02:29:40;;;;;;;9.30;9.00;;;10.90;99.90;;;;;;4948109;29;20239;-83
2023/10/27 02:32:08;;;;;;;9.20;8.90;;;10.90;99.90;;;;;;4945320;28;20259;-83
2023/10/27 02:34:36;;;;;;;9.50;9.20;;;10.90;99.90;;;;;;4947932;29;20266;-83
2023/10/27 02:37:04;;;;;;;9.30;9.00;;;10.80;99.90;;;;;;4947745;29;20239;-83
2023/10/27 02:39:32;;;;;;;9.00;8.70;;;10.90;99.90;;;;;;4947302;28;20230;-83
2023/10/27 02:41:59;;;;;;;9.30;9.00;;;10.80;99.90;;;;;;4947247;29;20231;-83
2023/10/27 02:44:26;;;;;;;9.20;8.90;;;10.80;99.90;;;;;;4947033;29;20261;-83
2023/10/27 02:46:54;;;;;;;8.77;8.57;;;10.80;99.90;;;;;;4947493;29;20234;-83
2023/10/27 02:49:23;;;;;;;8.97;8.67;;;10.80;99.90;;;;;;4946845;29;20226;-84
2023/10/27 02:51:50;;;;;;;9.40;9.10;;;10.80;99.90;;;;;;4947452;29;20248;-84
2023/10/27 02:54:17;;;;;;;9.20;8.90;;;10.80;99.90;;;;;;4948209;29;20243;-84
2023/10/27 02:56:44;;;;;;;9.50;9.20;;;10.80;99.90;;;;;;4949791;29;20255;-83
2023/10/27 02:59:11;;;;;;;9.50;9.20;;;10.80;99.90;;;;;;4947365;29;20263;-83
2023/10/27 03:01:39;;;;;;;9.30;9.00;;;10.80;99.90;;;;;;4946912;29;20231;-83
2023/10/27 03:04:06;;;;;;;9.37;9.07;;;10.80;99.90;;;;;;4947040;29;20246;-83
2023/10/27 03:06:35;;;;;;;9.40;9.10;;;10.80;99.90;;;;;;4946939;29;20263;-83
2023/10/27 03:09:03;;;;;;;9.50;9.20;;;10.70;99.90;;;;;;4946665;29;20230;-83
2023/10/27 03:11:30;;;;;;;9.60;9.30;;;10.70;99.90;;;;;;4946505;29;20242;-83
2023/10/27 03:13:58;;;;;;;9.20;8.90;;;10.70;99.90;;;;;;4946216;29;20342;-84
2023/10/27 03:16:25;;;;;;;9.30;9.00;;;10.60;99.90;;;;;;4946352;29;20243;-84
2023/10/27 03:18:53;;;;;;;9.20;8.90;;;10.60;99.90;;;;;;4938053;28;20232;-83
2023/10/27 03:21:21;;;;;;;9.40;9.10;;;10.60;99.90;;;;;;4927343;28;20329;-84
2023/10/27 03:23:49;;;;;;;9.30;9.00;;;10.60;99.90;;;;;;4927478;28;20286;-82
2023/10/27 03:26:17;;;;;;;9.43;9.13;;;10.60;99.90;;;;;;4927880;28;20231;-84
2023/10/27 03:28:44;;;;;;;9.13;8.83;;;10.60;99.90;;;;;;4927359;29;20274;-83
2023/10/27 03:31:12;;;;;;;9.57;9.27;;;10.60;99.90;;;;;;4926984;29;20215;-83
2023/10/27 03:33:40;;;;;;;9.43;9.13;;;10.60;99.90;;;;;;4928475;29;20245;-83
2023/10/27 03:36:08;;;;;;;9.17;8.87;;;10.60;99.90;;;;;;4929090;29;20234;-83
2023/10/27 03:38:36;;;;;;;9.50;9.20;;;10.60;99.90;;;;;;4931580;29;20235;-84
2023/10/27 03:41:05;;;;;;;9.57;9.27;;;10.60;99.90;;;;;;4944114;29;20275;-83
2023/10/27 03:43:34;;;;;;;9.50;9.20;;;10.50;99.90;;;;;;4946184;29;20290;-83
2023/10/27 03:46:02;;;;;;;9.60;9.30;;;10.50;99.90;;;;;;4955399;28;20236;-83
2023/10/27 03:48:30;;;;;;;9.77;9.47;;;10.40;99.90;;;;;;4954629;29;20259;-84
2023/10/27 03:50:57;;;;;;;9.80;9.50;;;10.40;99.90;;;;;;4948201;28;20231;-83
2023/10/27 03:53:24;;;;;;;9.60;9.30;;;10.40;99.90;;;;;;4948758;29;20302;-83
2023/10/27 03:55:55;;;;;;;9.90;9.60;;;10.40;99.90;;;;;;4948346;28;20259;-83
2023/10/27 03:58:23;;;;;;;9.70;9.40;;;10.40;99.90;;;;;;4948301;29;20303;-84
2023/10/27 04:00:51;;;;;;;10.00;9.70;;;10.40;99.90;;;;;;4947497;28;20235;-84
2023/10/27 04:03:18;;;;;;;9.60;9.30;;;10.40;99.90;;;;;;4947279;29;20303;-84
2023/10/27 04:05:45;;;;;;;9.60;9.30;;;10.40;99.90;;;;;;4947639;28;20254;-83
2023/10/27 04:08:13;;;;;;;9.70;9.40;;;10.40;99.90;;;;;;4947899;29;20227;-85
2023/10/27 04:10:40;;;;;;;9.80;9.50;;;10.30;99.90;;;;;;4947160;29;20231;-83
2023/10/27 04:13:08;;;;;;;9.50;9.20;;;10.40;99.90;;;;;;4947438;29;20283;-83
2023/10/27 04:15:37;;;;;;;9.80;9.50;;;10.40;99.90;;;;;;4946515;29;20267;-83
2023/10/27 04:18:04;;;;;;;9.30;9.00;;;10.40;99.90;;;;;;4951121;29;20245;-83
2023/10/27 04:20:31;;;;;;;9.30;9.00;;;10.40;99.90;;;;;;4951591;29;20298;-83
2023/10/27 04:22:58;;;;;;;9.60;9.30;;;10.40;99.90;;;;;;4952313;28;20241;-82
2023/10/27 04:25:27;;;;;;;9.30;9.00;;;10.40;99.90;;;;;;4948907;29;20238;-82
2023/10/27 04:27:55;;;;;;;9.50;9.20;;;10.30;99.90;;;;;;4948099;29;20235;-82
2023/10/27 04:30:22;;;;;;;9.53;9.23;;;10.20;99.90;;;;;;4945451;29;20286;-83
2023/10/27 04:32:52;;;;;;;9.63;9.33;;;10.20;99.90;;;;;;4930175;29;20239;-82
2023/10/27 04:35:19;;;;;;;9.13;8.83;;;10.30;99.90;;;;;;4931489;29;20235;-82
2023/10/27 04:37:47;;;;;;;9.50;9.20;;;10.30;99.90;;;;;;4932929;29;20224;-83
2023/10/27 04:40:14;;;;;;;9.33;9.03;;;10.30;99.90;;;;;;4930944;29;20240;-83
2023/10/27 04:42:41;;;;;;;9.20;8.90;;;10.40;99.90;;;;;;4943680;29;20235;-83
2023/10/27 04:45:10;;;;;;;9.33;9.03;;;10.40;99.90;;;;;;4946604;29;20231;-83
2023/10/27 04:47:38;;;;;;;9.20;8.90;;;10.30;99.90;;;;;;4946605;29;20219;-83
2023/10/27 04:50:09;;;;;;;9.20;8.90;;;10.40;99.90;;;;;;4946904;28;20225;-82
2023/10/27 04:52:39;;;;;;;8.90;8.60;;;10.40;99.90;;;;;;4953018;29;20270;-85
2023/10/27 04:55:08;;;;;;;9.00;8.70;;;10.30;99.90;;;;;;4956819;29;20250;-82
2023/10/27 04:57:42;;;;;;;9.10;8.80;;;10.40;99.90;;;;;;4957612;29;20265;-82
2023/10/27 05:00:11;;;;;;;9.10;8.80;;;10.40;99.90;;;;;;4960718;29;20255;-82
2023/10/27 05:02:39;;;;;;;9.30;9.00;;;10.40;99.90;;;;;;4961434;28;20222;-82
2023/10/27 05:05:09;;;;;;;9.03;8.73;;;10.30;99.90;;;;;;4961371;28;20213;-85
2023/10/27 05:07:37;;;;;;;9.37;9.07;;;10.40;99.90;;;;;;4962026;28;20239;-83
2023/10/27 05:10:07;;;;;;;9.30;9.00;;;10.30;99.90;;;;;;4961959;28;20251;-82
2023/10/27 05:12:36;;;;;;;9.27;8.97;;;10.30;99.90;;;;;;4961968;28;20219;-82
2023/10/27 05:15:04;;;;;;;9.10;8.80;;;10.30;99.90;;;;;;4961958;28;20230;-82
2023/10/27 05:17:35;;;;;;;9.30;9.00;;;10.30;99.90;;;;;;4962085;28;20222;-81
2023/10/27 05:20:03;;;;;;;9.20;8.90;;;10.20;99.90;;;;;;4962120;28;20225;-83
2023/10/27 05:22:32;;;;;;;9.30;9.00;;;10.20;99.90;;;;;;4962323;28;20214;-83
2023/10/27 05:25:01;;;;;;;9.30;9.00;;;10.20;99.90;;;;;;4961843;28;20203;-82
2023/10/27 05:27:28;;;;;;;9.30;9.00;;;10.20;99.90;;;;;;4963965;28;20215;-84
2023/10/27 05:29:55;;;;;;;9.00;8.70;;;10.20;99.90;;;;;;4965216;28;20215;-83
2023/10/27 05:32:23;;;;;;;9.30;9.00;;;10.20;99.90;;;;;;4965446;28;20248;-83
2023/10/27 05:34:50;;;;;;;9.40;9.10;;;10.20;99.90;;;;;;4964434;28;20226;-83
2023/10/27 05:37:18;;;;;;;9.60;9.30;;;10.20;99.90;;;;;;4952246;29;20294;-83
2023/10/27 05:39:47;;;;;;;9.40;9.10;;;10.20;99.90;;;;;;4948959;28;20238;-83
2023/10/27 05:42:17;;;;;;;9.47;9.17;;;10.20;99.90;;;;;;4947943;29;20261;-83
2023/10/27 05:44:44;;;;;;;9.30;9.00;;;10.20;99.90;;;;;;4948438;29;20263;-84
2023/10/27 05:47:12;;;;;;;9.17;8.87;;;10.10;99.90;;;;;;4948636;29;20234;-84
2023/10/27 05:49:39;;;;;;;9.13;8.83;;;10.00;99.90;;;;;;4949625;29;20235;-84
2023/10/27 05:52:07;;;;;;;9.45;9.15;;;10.00;99.90;;;;;;4944406;28;20401;-84
2023/10/27 05:54:34;;;;;;;9.17;8.87;;;10.00;99.90;;;;;;4931452;29;20242;-83
2023/10/27 05:57:03;;;;;;;9.20;8.90;;;10.10;99.90;;;;;;4930456;29;20299;-82
2023/10/27 05:59:30;;;;;;;8.70;8.50;;;10.10;99.90;;;;;;4930338;29;20268;-83
2023/10/27 06:01:58;;;;;;;9.00;8.70;;;10.10;99.90;;;;;;4930353;29;20239;-82
2023/10/27 06:04:26;;;;;;;9.20;8.90;;;10.20;99.90;;;;;;4929982;29;20236;-81
2023/10/27 06:06:53;;;;;;;9.20;8.90;;;10.20;99.90;;;;;;4929936;29;20270;-82
2023/10/27 06:09:20;;;;;;;9.27;8.97;;;10.20;99.90;;;;;;4931049;28;20224;-82
2023/10/27 06:11:47;;;;;;;9.27;8.97;;;10.20;99.90;;;;;;4930333;29;20236;-82
2023/10/27 06:14:16;;;;;;;9.20;8.90;;;10.30;99.90;;;;;;4929898;29;20292;-84
2023/10/27 06:16:43;;;;;;;8.70;8.50;;;10.20;99.90;;;;;;4929257;29;20223;-83
2023/10/27 06:19:10;;;;;;;8.90;8.60;;;10.20;99.90;;;;;;4930037;29;20220;-84
2023/10/27 06:21:37;;;;;;;8.83;8.57;;;10.20;99.90;;;;;;4929819;28;20243;-83
2023/10/27 06:24:07;;;;;;;9.00;8.70;;;10.10;99.90;;;;;;4929739;29;20228;-82
2023/10/27 06:26:34;;;;;;;8.57;8.37;;;10.10;99.90;;;;;;4930152;29;20227;-83
2023/10/27 06:29:01;;;;;;;8.90;8.60;;;10.10;99.90;;;;;;4929098;28;20235;-83
2023/10/27 06:31:30;;;;;;;9.00;8.70;;;10.10;99.90;;;;;;4931079;28;20239;-83
2023/10/27 06:33:57;;;;;;;9.20;8.90;;;10.10;99.90;;;;;;4933972;29;20239;-83
2023/10/27 06:36:25;;;;;;;9.10;8.80;;;10.10;99.90;;;;;;4938818;29;20234;-82
2023/10/27 06:38:52;;;;;;;8.57;8.37;;;10.10;99.90;;;;;;4935385;28;20246;-82
2023/10/27 06:41:19;;;;;;;8.83;8.57;;;10.10;99.90;;;;;;4942401;29;21161;-82
2023/10/27 06:43:46;;;;;;;9.07;8.77;;;10.10;99.90;;;;;;4952709;29;20234;-83
2023/10/27 06:46:14;;;;;;;8.73;8.53;;;10.10;99.90;;;;;;4949293;28;20259;-83
2023/10/27 06:48:42;;;;;;;8.97;8.67;;;10.10;99.90;;;;;;4948907;29;20290;-83
2023/10/27 06:51:09;;;;;;;9.00;8.70;;;10.10;99.90;;;;;;4947420;28;20242;-83
2023/10/27 06:53:37;;;;;;;9.20;8.90;;;10.00;99.90;;;;;;4948062;29;20274;-83
2023/10/27 06:56:06;;;;;;;9.17;8.87;;;10.10;99.90;;;;;;4948454;29;20239;-83
2023/10/27 06:58:33;;;;;;;8.80;8.60;;;10.10;99.90;;;;;;4948005;29;20298;-84
2023/10/27 07:01:07;;;;;;;8.50;8.30;;;10.10;99.90;;;;;;4948854;29;20249;-83
2023/10/27 07:03:35;;;;;;;8.70;8.50;;;10.00;99.90;;;;;;4948998;28;20266;-84
2023/10/27 07:06:06;;;;;;;8.43;8.23;;;10.10;99.90;;;;;;4948905;28;20239;-85
2023/10/27 07:08:33;;;;;;;8.97;8.67;;;10.00;99.90;;;;;;4949748;29;20235;-81
2023/10/27 07:11:00;;;;;;;8.30;8.10;;;10.00;99.90;;;;;;4956389;29;20234;-82
2023/10/27 07:13:28;;;;;;;9.00;8.70;;;10.00;99.90;;;;;;4948320;28;20227;-83
2023/10/27 07:15:56;;;;;;;8.70;8.50;;;10.00;99.90;;;;;;4951928;29;20239;-82
2023/10/27 07:18:24;;;;;;;8.80;8.50;;;10.00;99.90;;;;;;4949347;29;21161;-83
2023/10/27 07:20:53;;;;;;;9.00;8.70;;;10.00;99.90;;;;;;4948746;29;20249;-83
2023/10/27 07:23:21;;;;;;;9.10;8.80;;;9.90;99.90;;;;;;4949232;29;20241;-83
2023/10/27 07:25:49;;;;;;;8.90;8.60;;;9.90;99.90;;;;;;4948658;28;20235;-83
2023/10/27 07:28:16;;;;;;;8.90;8.60;;;9.90;99.90;;;;;;4948930;29;20238;-84
2023/10/27 07:30:43;;;;;;;8.77;8.50;;;9.90;99.90;;;;;;4948537;29;20242;-82
2023/10/27 07:33:11;;;;;;;8.93;8.63;;;9.80;99.90;;;;;;4949588;28;20230;-83
2023/10/27 07:35:38;;;;;;;9.20;8.90;;;9.80;99.90;;;;;;4948792;29;20329;-83
2023/10/27 07:38:06;;;;;;;9.30;9.00;;;9.80;99.90;;;;;;4949111;28;20227;-82
2023/10/27 07:40:41;;;;;;;9.00;8.70;;;9.80;99.90;;;;;;4948311;29;20263;-82
2023/10/27 07:43:08;;;;;;;9.03;8.73;;;9.80;99.90;;;;;;4949055;29;20278;-83
2023/10/27 07:45:35;;;;;;;8.80;8.50;;;9.90;99.90;;;;;;4947997;29;20227;-82
2023/10/27 07:48:03;;;;;;;8.90;8.60;;;9.90;99.90;;;;;;4949128;29;20234;-82
2023/10/27 07:50:30;;;;;;;8.60;8.40;;;9.90;99.90;;;;;;4947986;28;20311;-82
2023/10/27 07:52:57;;;;;;;8.80;8.50;;;10.00;99.90;;;;;;4948985;29;20242;-82
2023/10/27 07:55:25;;;;;;;9.00;8.70;;;10.00;99.90;;;;;;4949363;29;20267;-83
2023/10/27 07:57:56;;;;;;;9.00;8.70;;;10.00;99.90;;;;;;4950294;28;20255;-84
2023/10/27 08:00:23;;;;;;;8.80;8.53;;;10.10;99.90;;;;;;4951672;29;20238;-85
2023/10/27 08:02:51;;;;;;;8.90;8.60;;;10.10;99.90;;;;;;4949329;29;20234;-85
2023/10/27 08:05:19;;;;;;;8.90;8.60;;;10.20;99.90;;;;;;4949576;28;20235;-84
2023/10/27 08:07:47;;;;;;;8.90;8.60;;;10.20;99.90;;;;;;4949600;29;20223;-84
2023/10/27 08:10:16;;;;;;;8.60;8.40;;;10.20;99.90;;;;;;4950054;29;20242;-84
2023/10/27 08:12:43;;;;;;;8.50;8.30;;;10.20;99.90;;;;;;4950059;29;20250;-84
2023/10/27 08:15:12;;;;;;;8.87;8.57;;;10.20;99.90;;;;;;4949280;29;20307;-84
2023/10/27 08:17:39;;;;;;;8.67;8.47;;;10.20;99.90;;;;;;4947190;28;20234;-82
2023/10/27 08:20:10;;;;;;;8.70;8.50;;;10.20;99.90;;;;;;4947813;29;20241;-85
2023/10/27 08:22:41;;;;;;;8.60;8.40;;;10.20;99.90;;;;;;4948611;28;20239;-87
2023/10/27 08:25:09;;;;;;;8.90;8.60;;;10.20;99.90;;;;;;4949712;28;20231;-87
2023/10/27 08:27:36;;;;;;;8.80;8.50;;;10.30;99.90;;;;;;4949351;28;20227;-87
2023/10/27 08:30:05;;;;;;;8.50;8.30;;;10.40;99.90;;;;;;4948670;29;20247;-86
2023/10/27 08:32:34;;;;;;;8.40;8.20;;;10.40;99.90;;;;;;4948425;29;20243;-86
2023/10/27 08:35:02;;;;;;;8.53;8.33;;;10.40;99.90;;;;;;4947348;29;20263;-84
2023/10/27 08:37:29;;;;;;;8.57;8.37;;;10.50;99.90;;;;;;4947177;28;20237;-84
2023/10/27 08:39:57;;;;;;;8.70;8.50;;;10.50;99.90;;;;;;4946281;28;20239;-83
2023/10/27 08:42:27;;;;;;;8.60;8.40;;;10.50;99.90;;;;;;4949829;28;20239;-85
2023/10/27 08:44:56;;;;;;;8.83;8.63;;;10.60;99.90;;;;;;4945407;29;20277;-85
2023/10/27 08:47:23;;;;;;;8.60;8.40;;;10.60;99.90;;;;;;4947606;29;20255;-84
2023/10/27 08:49:53;;;;;;;8.77;8.50;;;10.60;99.90;;;;;;4949325;29;20285;-84
2023/10/27 08:52:20;;;;;;;9.00;8.70;;;10.60;99.90;;;;;;4948837;29;20235;-84
2023/10/27 08:54:48;;;;;;;8.70;8.50;;;10.70;99.90;;;;;;4947768;29;20341;-84
2023/10/27 08:57:15;;;;;;;8.70;8.50;;;10.70;99.90;;;;;;4948192;29;20226;-83
2023/10/27 08:59:43;;;;;;;8.60;8.40;;;10.60;99.90;;;;;;4949448;29;20239;-85
2023/10/27 09:02:11;;;;;;;8.50;8.30;;;10.60;99.90;;;;;;4946886;29;20231;-82
2023/10/27 09:04:43;;;;;;;8.70;8.50;;;10.50;99.90;;;;;;4948088;29;20234;-84
2023/10/27 09:07:12;;;;;;;8.50;8.30;;;10.50;99.90;;;;;;4948483;29;20260;-83
2023/10/27 09:09:40;;;;;;;8.80;8.53;;;10.50;99.90;;;;;;4952159;29;20243;-84
2023/10/27 09:12:07;;;;;;;8.50;8.30;;;10.60;99.90;;;;;;4947612;29;20231;-83
2023/10/27 09:14:34;;;;;;;8.40;8.20;;;10.60;99.90;;;;;;4947276;29;21111;-82
2023/10/27 09:17:06;;;;;;;8.30;8.10;;;10.70;99.90;;;;;;4948832;29;20246;-84
2023/10/27 09:19:34;;;;;;;8.70;8.50;;;10.80;99.90;;;;;;4949343;29;20247;-82
2023/10/27 09:22:05;;;;;;;8.27;8.07;;;10.90;99.90;;;;;;4948193;29;20246;-82
2023/10/27 09:24:33;;;;;;;9.00;8.70;;;10.90;99.90;;;;;;4946307;29;20239;-82
2023/10/27 09:27:02;;;;;;;8.50;8.30;;;11.00;99.90;;;;;;4948737;29;20230;-84
2023/10/27 09:29:31;;;;;;;8.73;8.53;;;11.10;99.90;;;;;;4947470;29;20270;-84
2023/10/27 09:32:00;;;;;;;9.17;8.87;;;11.20;99.90;;;;;;4949324;29;20234;-88
2023/10/27 09:34:34;;;;;;;9.27;8.97;;;11.30;99.90;;;;;;4950951;29;20321;-87
2023/10/27 09:37:01;;;;;;;9.10;8.80;;;11.40;99.90;;;;;;4948671;29;20223;-86
2023/10/27 09:39:33;;;;;;;9.17;8.87;;;11.40;99.90;;;;;;4949414;28;20263;-84
2023/10/27 09:42:04;;;;;;;9.23;8.93;;;11.50;99.90;;;;;;4949231;29;20235;-85
2023/10/27 09:44:41;;;;;;;9.30;9.00;;;11.40;99.90;;;;;;4952764;29;20227;-84
2023/10/27 09:47:19;;;;;;;9.20;8.90;;;11.50;99.90;;;;;;4947676;29;20266;-82
2023/10/27 09:49:54;;;;;;;9.40;9.10;;;11.50;99.90;;;;;;4948698;29;20269;-84
2023/10/27 09:52:22;;;;;;;9.87;9.57;;;11.60;99.90;;;;;;4948028;29;20236;-84
2023/10/27 09:54:52;;;;;;;9.90;9.60;;;11.70;99.90;;;;;;4946701;29;20253;-85
2023/10/27 09:57:19;;;;;;;9.87;9.57;;;11.70;99.90;;;;;;4946596;29;20227;-84
2023/10/27 09:59:49;;;;;;;9.90;9.60;;;11.80;99.90;;;;;;4946334;29;20235;-84
2023/10/27 10:02:17;;;;;;;9.93;9.63;;;11.70;99.90;;;;;;4946345;29;20239;-84
2023/10/27 10:05:01;;;;;;;9.97;9.67;;;11.70;99.90;;;;;;4946029;29;20239;-84
2023/10/27 10:07:33;;;;;;;10.00;9.70;;;11.80;99.90;;;;;;4945605;29;20233;-83
2023/10/27 10:10:26;;;;;;;9.73;9.43;;;11.70;99.90;;;;;;4944106;29;20235;-83
2023/10/27 10:13:04;;;;;;;9.97;9.67;;;11.60;99.90;;;;;;4946336;29;20245;-84
2023/10/27 10:15:33;;;;;;;9.63;9.33;;;11.60;99.90;;;;;;4948026;29;20266;-83
2023/10/27 10:18:01;;;;;;;9.73;9.43;;;11.70;99.90;;;;;;4948182;29;20223;-83
2023/10/27 10:20:56;;;;;;;9.67;9.37;;;11.70;99.90;;;;;;4947944;29;20254;-84
2023/10/27 10:23:25;;;;;;;9.90;9.60;;;11.60;99.90;;;;;;4948291;29;20333;-85
2023/10/27 10:25:55;;;;;;;9.70;9.40;;;11.60;99.90;;;;;;4947771;29;20219;-84
2023/10/27 10:28:29;;;;;;;9.37;9.07;;;11.70;99.90;;;;;;4948536;29;20326;-83
2023/10/27 10:31:27;;;;;;;9.70;9.40;;;11.70;99.90;;;;;;4947997;29;20265;-83
2023/10/27 10:34:13;;;;;;;9.90;9.60;;;11.70;99.90;;;;;;4947617;29;20231;-83
2023/10/27 10:36:41;;;;;;;9.90;9.60;;;11.80;99.90;;;;;;4947938;29;20238;-83
2023/10/27 10:39:11;;;;;;;9.90;9.60;;;11.70;99.90;;;;;;4948112;29;20234;-85
2023/10/27 10:42:05;;;;;;;9.80;9.50;;;11.80;99.90;;;;;;4947813;29;20235;-84
2023/10/27 10:44:33;;;;;;;10.57;10.27;;;11.80;99.90;;;;;;4947407;29;20263;-83
2023/10/27 10:47:03;;;;;;;10.17;9.87;;;11.80;99.90;;;;;;4948056;29;20230;-83
2023/10/27 10:49:31;;;;;;;10.00;9.70;;;11.90;99.90;;;;;;4948548;29;20243;-83
2023/10/27 10:52:01;;;;;;;10.00;9.70;;;11.90;99.90;;;;;;4948200;29;20239;-83
2023/10/27 10:54:30;;;;;;;10.13;9.83;;;12.00;99.90;;;;;;4948897;29;20242;-84
2023/10/27 10:57:13;;;;;;;9.90;9.60;;;12.00;99.90;;;;;;4947279;29;20238;-83
2023/10/27 10:59:53;;;;;;;10.20;9.90;;;12.00;99.90;;;;;;4948122;29;20237;-82
2023/10/27 11:02:22;;;;;;;10.20;9.90;;;12.00;99.90;;;;;;4947424;29;20265;-82
2023/10/27 11:04:49;;;;;;;10.10;9.80;;;12.00;99.90;;;;;;4946641;29;20314;-83
2023/10/27 11:07:18;;;;;;;10.10;9.80;;;12.00;99.90;;;;;;4946903;29;20223;-84
2023/10/27 11:09:45;;;;;;;10.00;9.70;;;12.00;99.90;;;;;;4947903;29;20235;-82
2023/10/27 11:12:26;;;;;;;9.97;9.67;;;12.00;99.90;;;;;;4949351;29;20234;-82
2023/10/27 11:14:53;;;;;;;9.90;9.60;;;12.00;99.90;;;;;;4946345;29;20241;-82
2023/10/27 11:17:20;;;;;;;10.10;9.80;;;12.00;99.90;;;;;;4946731;29;20242;-82
2023/10/27 11:19:55;;;;;;;10.30;10.00;;;12.10;99.90;;;;;;4946424;29;20234;-81
2023/10/27 11:22:27;;;;;;;10.10;9.80;;;12.20;99.90;;;;;;4947176;29;20260;-83
2023/10/27 11:24:54;;;;;;;10.30;10.00;;;12.30;99.90;;;;;;4945583;28;20235;-82
2023/10/27 11:27:27;;;;;;;10.40;10.10;;;12.50;99.90;;;;;;4946468;29;20219;-82
2023/10/27 11:30:02;;;;;;;9.90;9.60;;;12.70;99.90;;;;;;4945836;29;20246;-82
2023/10/27 11:32:29;;;;;;;10.00;9.70;;;13.00;99.90;;;;;;4946743;29;20269;-83
2023/10/27 11:34:57;;;;;;;10.20;9.90;;;13.00;99.90;;;;;;4945623;29;20243;-82
2023/10/27 11:37:25;;;;;;;10.10;9.80;;;12.90;99.90;;;;;;4946023;28;20231;-82
2023/10/27 11:39:52;;;;;;;10.13;9.83;;;12.80;99.90;;;;;;4945912;29;20310;-82
2023/10/27 11:42:19;;;;;;;10.00;9.70;;;12.60;99.90;;;;;;4946740;29;21060;-82
2023/10/27 11:44:48;;;;;;;9.77;9.47;;;12.50;99.90;;;;;;4948653;28;20302;-83
2023/10/27 11:47:17;;;;;;;9.87;9.57;;;12.40;99.90;;;;;;4951193;29;20223;-82
2023/10/27 11:49:44;;;;;;;10.03;9.73;;;12.30;99.90;;;;;;4944464;29;20239;-83
2023/10/27 11:52:11;;;;;;;9.73;9.43;;;12.30;99.90;;;;;;4945020;29;20314;-83
2023/10/27 11:54:39;;;;;;;9.63;9.33;;;12.40;99.90;;;;;;4944271;29;20231;-82
2023/10/27 11:57:06;;;;;;;9.47;9.17;;;12.50;99.90;;;;;;4947185;29;20264;-82
2023/10/27 11:59:33;;;;;;;9.80;9.50;;;12.60;99.90;;;;;;4947035;29;20239;-81
2023/10/27 12:02:02;;;;;;;9.87;9.57;;;12.70;99.90;;;;;;4949029;29;20289;-82
2023/10/27 12:04:30;;;;;;;9.53;9.23;;;13.10;99.90;;;;;;4947496;29;20266;-82
2023/10/27 12:06:57;;;;;;;9.40;9.10;;;13.50;99.90;;;;;;4946381;29;20298;-82
2023/10/27 12:09:24;;;;;;;9.40;9.10;;;13.60;99.90;;;;;;4946501;29;20239;-80
2023/10/27 12:11:52;;;;;;;9.40;9.10;;;13.70;99.90;;;;;;4947314;29;20242;-81
2023/10/27 12:14:20;;;;;;;9.93;9.63;;;13.90;99.90;;;;;;4950552;29;20250;-81
2023/10/27 12:16:47;;;;;;;9.60;9.30;;;13.90;99.90;;;;;;4944195;29;20231;-81
2023/10/27 12:19:16;;;;;;;10.03;9.73;;;14.20;99.90;;;;;;4944102;29;20294;-80
2023/10/27 12:21:43;;;;;;;10.00;9.70;;;14.50;99.90;;;;;;4943953;29;20717;-81
2023/10/27 12:24:11;;;;;;;10.00;9.70;;;14.50;99.90;;;;;;4944923;29;20263;-81
2023/10/27 12:26:38;;;;;;;9.90;9.60;;;14.60;99.90;;;;;;4944134;29;20223;-81
2023/10/27 12:29:08;;;;;;;9.90;9.60;;;14.60;99.90;;;;;;4950179;29;21048;-81
2023/10/27 12:31:35;;;;;;;10.00;9.70;;;14.60;99.90;;;;;;4940686;29;20247;-82
2023/10/27 12:34:03;;;;;;;9.80;9.50;;;14.90;99.90;;;;;;4943908;29;21088;-79
2023/10/27 12:36:31;;;;;;;9.70;9.40;;;15.20;99.90;;;;;;4942850;29;20262;-81
2023/10/27 12:39:00;;;;;;;9.60;9.30;;;15.30;99.90;;;;;;4945442;29;21036;-81
2023/10/27 12:41:27;;;;;;;9.50;9.20;;;15.10;99.90;;;;;;4946016;29;20720;-84
2023/10/27 12:43:54;;;;;;;9.55;9.25;;;15.20;99.90;;;;;;4947057;29;20246;-83
2023/10/27 12:46:24;;;;;;;9.63;9.32;;;15.20;99.90;;;;;;4947497;29;20270;-83
2023/10/27 12:48:52;;;;;;;9.90;9.60;;;15.20;99.90;;;;;;4946876;28;20283;-82
2023/10/27 12:51:19;;;;;;;9.45;9.15;;;15.30;99.90;;;;;;4944653;29;20254;-81
2023/10/27 12:53:47;;;;;;;9.70;9.40;;;15.30;99.90;;;;;;4943407;28;20257;-82